createdAt,value
2023-01-13T00:02:22.352Z,54.35
2023-01-13T00:04:48.967Z,54.65
2023-01-13T00:07:15.810Z,54.36
2023-01-13T00:09:42.412Z,54.69
2023-01-13T00:12:09.000Z,54.36
2023-01-13T00:14:35.933Z,54.23
2023-01-13T00:17:03.808Z,54.44
2023-01-13T00:19:30.511Z,54.80
2023-01-13T00:21:57.046Z,54.15
2023-01-13T00:24:23.675Z,53.91
2023-01-13T00:26:50.262Z,53.92
2023-01-13T00:29:16.881Z,54.03
2023-01-13T00:31:43.435Z,53.63
2023-01-13T00:34:10.338Z,53.71
2023-01-13T00:36:36.919Z,53.41
2023-01-13T00:39:03.836Z,53.43
2023-01-13T00:41:50.382Z,53.51
2023-01-13T00:44:17.031Z,53.23
2023-01-13T00:46:43.608Z,53.13
2023-01-13T00:49:10.346Z,53.22
2023-01-13T00:51:36.948Z,53.26
2023-01-13T00:54:03.592Z,53.10
2023-01-13T00:56:44.818Z,53.24
2023-01-13T00:59:13.510Z,53.12
2023-01-13T01:01:40.677Z,53.15
2023-01-13T01:04:07.413Z,53.39
2023-01-13T01:06:34.036Z,53.92
2023-01-13T01:09:00.833Z,53.72
2023-01-13T01:11:29.123Z,54.01
2023-01-13T01:13:57.459Z,54.03
2023-01-13T01:16:25.611Z,54.16
2023-01-13T01:18:52.944Z,54.04
2023-01-13T01:21:20.082Z,54.16
2023-01-13T01:23:46.818Z,54.57
2023-01-13T01:26:18.369Z,54.37
2023-01-13T01:28:45.327Z,54.58
2023-01-13T01:31:16.613Z,54.55
2023-01-13T01:33:44.327Z,54.63
2023-01-13T01:36:12.187Z,54.89
2023-01-13T01:38:38.960Z,55.08
2023-01-13T01:41:06.045Z,55.02
2023-01-13T01:44:05.977Z,55.11
2023-01-13T01:46:40.144Z,55.34
2023-01-13T01:49:12.609Z,55.97
2023-01-13T01:51:42.593Z,56.16
2023-01-13T01:54:10.662Z,55.85
2023-01-13T01:56:37.627Z,56.15
2023-01-13T01:59:04.321Z,55.80
2023-01-13T02:01:32.719Z,55.76
2023-01-13T02:04:01.656Z,55.42
2023-01-13T02:06:29.791Z,55.64
2023-01-13T02:08:57.213Z,55.58
2023-01-13T02:11:47.998Z,55.70
2023-01-13T02:14:14.865Z,55.88
2023-01-13T02:16:45.036Z,55.94
2023-01-13T02:19:25.382Z,55.93
2023-01-13T02:22:12.167Z,55.81
2023-01-13T02:24:55.882Z,56.21
2023-01-13T02:27:40.993Z,55.90
2023-01-13T02:30:41.401Z,55.90
2023-01-13T02:33:16.516Z,56.34
2023-01-13T02:36:01.535Z,56.30
2023-01-13T02:38:46.976Z,56.56
2023-01-13T02:41:41.218Z,56.49
2023-01-13T02:44:10.640Z,56.29
2023-01-13T02:46:43.691Z,56.19
2023-01-13T02:49:12.459Z,56.24
2023-01-13T02:51:41.147Z,56.71
2023-01-13T02:54:13.671Z,56.97
2023-01-13T02:56:43.060Z,57.07
2023-01-13T02:59:10.494Z,57.00
2023-01-13T03:01:37.222Z,57.09
2023-01-13T03:04:32.916Z,56.99
2023-01-13T03:07:05.759Z,57.24
2023-01-13T03:09:41.704Z,57.50
2023-01-13T03:12:17.477Z,57.38
2023-01-13T03:14:52.852Z,57.47
2023-01-13T03:17:28.781Z,57.60
2023-01-13T03:20:02.329Z,57.45
2023-01-13T03:22:36.072Z,57.97
2023-01-13T03:25:13.908Z,58.27
2023-01-13T03:27:47.072Z,58.46
2023-01-13T03:30:37.087Z,58.46
2023-01-13T03:33:11.785Z,58.35
2023-01-13T03:35:40.536Z,58.60
2023-01-13T03:38:12.581Z,58.85
2023-01-13T03:40:42.138Z,58.94
2023-01-13T03:43:30.647Z,59.13
2023-01-13T03:46:02.035Z,59.30
2023-01-13T03:48:31.487Z,59.33
2023-01-13T03:51:04.295Z,59.40
2023-01-13T03:53:32.653Z,59.74
2023-01-13T03:56:01.845Z,59.67
2023-01-13T03:58:33.921Z,60.20
2023-01-13T04:01:21.982Z,60.52
2023-01-13T04:03:52.533Z,60.32
2023-01-13T04:06:31.272Z,61.39
2023-01-13T04:09:02.558Z,61.63
2023-01-13T04:11:44.300Z,62.05
2023-01-13T04:14:12.654Z,61.91
2023-01-13T04:16:39.402Z,61.55
2023-01-13T04:19:06.735Z,61.47
2023-01-13T04:21:35.180Z,61.61
2023-01-13T04:24:01.940Z,61.53
2023-01-13T04:26:28.565Z,61.64
2023-01-13T04:28:55.501Z,61.31
2023-01-13T04:31:22.154Z,61.15
2023-01-13T04:33:48.809Z,61.24
2023-01-13T04:36:15.883Z,61.33
2023-01-13T04:38:42.628Z,61.25
2023-01-13T04:41:09.196Z,61.34
2023-01-13T04:43:35.808Z,61.10
2023-01-13T04:46:02.580Z,61.46
2023-01-13T04:48:29.486Z,61.38
2023-01-13T04:50:56.176Z,61.28
2023-01-13T04:53:22.819Z,61.66
2023-01-13T04:55:49.778Z,61.42
2023-01-13T04:58:16.376Z,61.69
2023-01-13T05:00:43.182Z,61.68
2023-01-13T05:03:09.842Z,62.26
2023-01-13T05:05:36.446Z,62.43
2023-01-13T05:08:03.323Z,68.46
2023-01-13T05:10:29.977Z,69.75
2023-01-13T05:13:15.330Z,67.48
2023-01-13T05:16:01.283Z,62.97
2023-01-13T05:18:29.182Z,65.97
2023-01-13T05:20:55.752Z,62.32
2023-01-13T05:23:41.072Z,63.57
2023-01-13T05:26:07.768Z,62.82
2023-01-13T05:28:34.616Z,63.03
2023-01-13T05:31:01.802Z,61.50
2023-01-13T05:33:28.431Z,61.33
2023-01-13T05:35:55.027Z,60.17
2023-01-13T05:38:21.905Z,60.63
2023-01-13T05:41:07.154Z,60.93
2023-01-13T05:43:34.984Z,60.84
2023-01-13T05:46:09.064Z,60.76
2023-01-13T05:48:37.203Z,61.11
2023-01-13T05:51:04.759Z,61.23
2023-01-13T05:53:31.628Z,61.59
2023-01-13T05:55:58.345Z,61.75
2023-01-13T05:58:26.056Z,61.72
2023-01-13T06:00:53.102Z,62.15
2023-01-13T06:03:23.675Z,62.48
2023-01-13T06:05:52.061Z,62.39
2023-01-13T06:08:19.198Z,62.17
2023-01-13T06:10:45.999Z,62.52
2023-01-13T06:13:12.580Z,62.67
2023-01-13T06:15:39.114Z,63.44
2023-01-13T06:18:06.065Z,63.04
2023-01-13T06:20:32.621Z,62.85
2023-01-13T06:23:00.355Z,62.96
2023-01-13T06:25:29.894Z,63.08
2023-01-13T06:27:58.976Z,63.19
2023-01-13T06:30:27.751Z,63.01
2023-01-13T06:32:55.616Z,63.12
2023-01-13T06:35:25.462Z,62.99
2023-01-13T06:37:53.970Z,63.32
2023-01-13T06:40:20.697Z,63.45
2023-01-13T06:43:05.811Z,63.84
2023-01-13T06:45:32.513Z,63.81
2023-01-13T06:47:59.961Z,64.26
2023-01-13T06:50:27.100Z,63.87
2023-01-13T06:52:53.845Z,63.48
2023-01-13T06:55:20.515Z,63.98
2023-01-13T06:57:51.091Z,63.71
2023-01-13T07:00:17.982Z,63.45
2023-01-13T07:02:44.541Z,63.54
2023-01-13T07:05:11.589Z,63.24
2023-01-13T07:07:38.170Z,63.25
2023-01-13T07:10:05.156Z,63.44
2023-01-13T07:12:51.686Z,62.94
2023-01-13T07:15:18.336Z,63.16
2023-01-13T07:17:44.861Z,62.89
2023-01-13T07:20:11.589Z,62.60
2023-01-13T07:22:38.196Z,62.83
2023-01-13T07:25:05.077Z,62.30
2023-01-13T07:27:31.692Z,62.74
2023-01-13T07:29:58.308Z,62.86
2023-01-13T07:32:24.867Z,63.08
2023-01-13T07:34:51.507Z,63.34
2023-01-13T07:37:18.011Z,63.04
2023-01-13T07:39:45.459Z,63.15
2023-01-13T07:42:30.385Z,63.46
2023-01-13T07:44:57.007Z,63.36
2023-01-13T07:47:23.678Z,62.86
2023-01-13T07:49:50.292Z,63.10
2023-01-13T07:52:16.857Z,62.81
2023-01-13T07:54:43.449Z,62.29
2023-01-13T07:57:10.174Z,61.98
2023-01-13T07:59:37.144Z,62.10
2023-01-13T08:02:03.843Z,62.08
2023-01-13T08:04:30.599Z,62.27
2023-01-13T08:06:57.175Z,62.17
2023-01-13T08:09:23.869Z,62.06
2023-01-13T08:12:13.715Z,62.32
2023-01-13T08:14:40.328Z,62.28
2023-01-13T08:17:10.114Z,62.32
2023-01-13T08:19:36.745Z,61.92
2023-01-13T08:22:03.366Z,61.72
2023-01-13T08:24:30.016Z,61.60
2023-01-13T08:26:56.668Z,61.42
2023-01-13T08:29:23.287Z,61.15
2023-01-13T08:31:49.851Z,60.87
2023-01-13T08:34:16.506Z,60.64
2023-01-13T08:36:43.130Z,60.63
2023-01-13T08:39:09.783Z,60.81
2023-01-13T08:41:54.692Z,60.92
2023-01-13T08:44:21.940Z,60.86
2023-01-13T08:46:48.584Z,61.25
2023-01-13T08:49:16.126Z,61.88
2023-01-13T08:51:43.578Z,61.80
2023-01-13T08:54:10.222Z,62.07
2023-01-13T08:56:36.930Z,62.73
2023-01-13T08:59:03.582Z,62.56
2023-01-13T09:01:30.245Z,62.57
2023-01-13T09:03:57.043Z,62.75
2023-01-13T09:06:23.670Z,62.93
2023-01-13T09:08:50.259Z,62.72
2023-01-13T09:11:39.806Z,62.66
2023-01-13T09:14:06.411Z,62.82
2023-01-13T09:16:32.942Z,62.83
2023-01-13T09:18:59.548Z,62.25
2023-01-13T09:21:26.435Z,62.25
2023-01-13T09:23:53.079Z,61.73
2023-01-13T09:26:21.282Z,61.69
2023-01-13T09:28:47.895Z,61.80
2023-01-13T09:31:14.540Z,62.06
2023-01-13T09:33:59.955Z,61.65
2023-01-13T09:36:26.566Z,62.04
2023-01-13T09:38:53.117Z,61.78
2023-01-13T09:41:39.724Z,61.82
2023-01-13T09:44:09.936Z,61.15
2023-01-13T09:46:44.039Z,60.90
2023-01-13T09:49:15.945Z,61.13
2023-01-13T09:51:45.964Z,61.10
2023-01-13T09:54:20.470Z,60.85
2023-01-13T09:56:47.288Z,60.37
2023-01-13T09:59:16.210Z,60.31
2023-01-13T10:01:54.268Z,60.58
2023-01-13T10:04:20.917Z,60.20
2023-01-13T10:06:50.147Z,60.23
2023-01-13T10:09:20.899Z,59.90
2023-01-13T10:12:07.695Z,59.77
2023-01-13T10:14:49.653Z,59.40
2023-01-13T10:17:25.947Z,59.39
2023-01-13T10:19:58.786Z,59.06
2023-01-13T10:22:42.677Z,59.07
2023-01-13T10:25:18.466Z,59.18
2023-01-13T10:27:49.355Z,58.82
2023-01-13T10:30:22.115Z,58.70
2023-01-13T10:33:29.995Z,58.52
2023-01-13T10:36:02.587Z,58.17
2023-01-13T10:38:39.685Z,57.51
2023-01-13T10:41:26.662Z,57.18
2023-01-13T10:44:01.416Z,56.71
2023-01-13T10:46:28.832Z,56.35
2023-01-13T10:48:59.666Z,56.65
2023-01-13T10:51:38.380Z,55.66
2023-01-13T10:54:13.921Z,55.39
2023-01-13T10:56:42.608Z,54.91
2023-01-13T10:59:09.379Z,54.77
2023-01-13T11:01:37.184Z,54.64
2023-01-13T11:04:16.514Z,54.26
2023-01-13T11:06:46.023Z,53.84
2023-01-13T11:09:19.227Z,53.89
2023-01-13T11:11:47.461Z,53.33
2023-01-13T11:14:41.887Z,53.21
2023-01-13T11:17:45.531Z,52.48
2023-01-13T11:20:12.131Z,52.34
2023-01-13T11:22:46.578Z,51.95
2023-01-13T11:25:33.464Z,52.07
2023-01-13T11:28:05.799Z,51.55
2023-01-13T11:30:58.441Z,52.06
2023-01-13T11:33:29.334Z,51.84
2023-01-13T11:35:59.009Z,52.10
2023-01-13T11:38:27.414Z,52.31
2023-01-13T11:40:57.328Z,52.42
2023-01-13T11:43:33.298Z,53.01
2023-01-13T11:46:00.958Z,52.93
2023-01-13T11:48:28.824Z,52.28
2023-01-13T11:51:13.486Z,52.11
2023-01-13T11:54:07.718Z,52.59
2023-01-13T11:56:49.337Z,52.66
2023-01-13T11:59:21.744Z,52.69
2023-01-13T12:02:00.428Z,52.64
2023-01-13T12:04:40.935Z,53.30
2023-01-13T12:07:22.072Z,53.04
2023-01-13T12:10:15.940Z,53.05
2023-01-13T12:12:51.006Z,53.00
2023-01-13T12:15:17.647Z,52.55
2023-01-13T12:18:02.803Z,52.49
2023-01-13T12:20:38.217Z,52.95
2023-01-13T12:23:10.159Z,52.30
2023-01-13T12:25:45.519Z,52.18
2023-01-13T12:28:16.307Z,51.77
2023-01-13T12:30:45.803Z,51.51
2023-01-13T12:33:19.826Z,51.40
2023-01-13T12:36:06.903Z,50.66
2023-01-13T12:38:37.459Z,50.58
2023-01-13T12:41:04.013Z,50.15
2023-01-13T12:43:49.939Z,50.19
2023-01-13T12:46:19.610Z,50.05
2023-01-13T12:48:46.390Z,49.30
2023-01-13T12:51:29.250Z,49.23
2023-01-13T12:53:56.429Z,48.96
2023-01-13T12:56:29.271Z,49.04
2023-01-13T12:59:14.523Z,48.62
2023-01-13T13:01:41.890Z,48.63
2023-01-13T13:04:13.042Z,48.24
2023-01-13T13:06:43.613Z,47.57
2023-01-13T13:09:25.167Z,47.52
2023-01-13T13:12:03.944Z,46.65
2023-01-13T13:14:39.520Z,46.80
2023-01-13T13:17:28.227Z,46.50
2023-01-13T13:19:55.932Z,46.46
2023-01-13T13:22:28.526Z,46.46
2023-01-13T13:24:55.187Z,46.02
2023-01-13T13:27:37.127Z,45.60
2023-01-13T13:30:21.785Z,45.05
2023-01-13T13:33:05.995Z,44.68
2023-01-13T13:35:35.497Z,44.79
2023-01-13T13:38:35.987Z,44.68
2023-01-13T13:41:24.452Z,44.71
2023-01-13T13:44:09.744Z,44.86
2023-01-13T13:46:48.373Z,44.67
2023-01-13T13:49:14.958Z,44.74
2023-01-13T13:51:45.289Z,44.49
2023-01-13T13:54:14.484Z,44.74
2023-01-13T13:56:43.307Z,44.72
2023-01-13T13:59:16.668Z,44.93
2023-01-13T14:01:45.226Z,44.74
2023-01-13T14:04:20.007Z,44.76
2023-01-13T14:06:57.331Z,45.05
2023-01-13T14:09:24.726Z,45.38
2023-01-13T14:12:17.706Z,45.26
2023-01-13T14:14:44.673Z,45.23
2023-01-13T14:17:23.702Z,45.16
2023-01-13T14:20:00.478Z,45.92
2023-01-13T14:22:27.259Z,45.80
2023-01-13T14:24:58.011Z,46.66
2023-01-13T14:27:27.509Z,46.45
2023-01-13T14:29:55.056Z,46.76
2023-01-13T14:32:22.966Z,46.58
2023-01-13T14:34:50.948Z,47.06
2023-01-13T14:37:23.596Z,46.73
2023-01-13T14:39:50.238Z,47.26
2023-01-13T14:42:17.331Z,47.11
2023-01-13T14:44:47.613Z,47.38
2023-01-13T14:47:26.776Z,46.56
2023-01-13T14:49:59.008Z,46.63
2023-01-13T14:52:26.293Z,46.59
2023-01-13T14:54:54.587Z,46.94
2023-01-13T14:57:28.579Z,46.98
2023-01-13T14:59:56.229Z,47.03
2023-01-13T15:02:25.660Z,46.93
2023-01-13T15:04:58.688Z,46.90
2023-01-13T15:07:27.105Z,47.19
2023-01-13T15:09:58.460Z,47.26
2023-01-13T15:12:33.682Z,47.40
2023-01-13T15:15:00.318Z,47.93
2023-01-13T15:17:26.872Z,47.79
2023-01-13T15:19:53.561Z,48.12
2023-01-13T15:22:20.178Z,48.15
2023-01-13T15:24:47.907Z,48.36
2023-01-13T15:27:22.701Z,48.38
2023-01-13T15:29:49.325Z,48.47
2023-01-13T15:32:19.484Z,48.49
2023-01-13T15:34:46.979Z,48.62
2023-01-13T15:37:17.146Z,48.45
2023-01-13T15:39:44.009Z,48.33
2023-01-13T15:42:32.374Z,48.38
2023-01-13T15:45:17.659Z,48.58
2023-01-13T15:47:44.999Z,48.66
2023-01-13T15:50:15.571Z,48.62
2023-01-13T15:52:42.659Z,48.84
2023-01-13T15:55:09.459Z,48.93
2023-01-13T15:57:37.723Z,48.88
2023-01-13T16:00:06.071Z,49.62
2023-01-13T16:02:33.119Z,49.51
2023-01-13T16:04:59.725Z,49.84
2023-01-13T16:07:26.549Z,49.74
2023-01-13T16:09:53.150Z,49.77
2023-01-13T16:12:19.735Z,49.84
2023-01-13T16:14:46.310Z,49.79
2023-01-13T16:17:15.195Z,49.92
2023-01-13T16:19:41.787Z,49.96
2023-01-13T16:22:08.527Z,49.89
2023-01-13T16:24:35.161Z,49.94
2023-01-13T16:27:01.691Z,50.36
2023-01-13T16:29:28.329Z,50.38
2023-01-13T16:31:54.902Z,50.40
2023-01-13T16:34:21.476Z,50.53
2023-01-13T16:36:48.078Z,51.02
2023-01-13T16:39:21.879Z,51.21
2023-01-13T16:41:48.728Z,51.21
2023-01-13T16:44:15.255Z,51.00
2023-01-13T16:46:44.568Z,51.46
2023-01-13T16:49:14.680Z,51.58
2023-01-13T16:51:41.376Z,52.06
2023-01-13T16:54:08.004Z,52.08
2023-01-13T16:56:35.424Z,52.23
2023-01-13T16:59:21.467Z,52.94
2023-01-13T17:01:48.259Z,53.54
2023-01-13T17:04:16.396Z,54.14
2023-01-13T17:06:48.212Z,54.75
2023-01-13T17:09:15.979Z,54.77
2023-01-13T17:11:42.892Z,55.08
2023-01-13T17:14:18.294Z,55.51
2023-01-13T17:16:45.843Z,55.54
2023-01-13T17:19:12.823Z,55.75
2023-01-13T17:21:39.355Z,55.84
2023-01-13T17:24:07.905Z,56.03
2023-01-13T17:26:38.932Z,56.17
2023-01-13T17:29:06.769Z,56.41
2023-01-13T17:31:34.290Z,56.52
2023-01-13T17:34:01.134Z,56.40
2023-01-13T17:36:27.867Z,56.59
2023-01-13T17:38:55.467Z,56.67
2023-01-13T17:41:22.579Z,56.65
2023-01-13T17:43:49.350Z,56.93
2023-01-13T17:46:19.836Z,56.95
2023-01-13T17:48:47.133Z,57.14
2023-01-13T17:51:15.403Z,57.10
2023-01-13T17:53:43.015Z,57.38
2023-01-13T17:56:09.976Z,57.45
2023-01-13T17:58:37.480Z,57.40
2023-01-13T18:01:11.104Z,57.47
2023-01-13T18:03:38.298Z,57.63
2023-01-13T18:06:09.387Z,57.68
2023-01-13T18:08:36.064Z,58.25
2023-01-13T18:11:02.993Z,58.01
2023-01-13T18:13:31.528Z,58.15
2023-01-13T18:16:04.188Z,58.33
2023-01-13T18:18:30.883Z,58.41
2023-01-13T18:21:16.234Z,58.45
2023-01-13T18:24:01.549Z,58.33
2023-01-13T18:26:46.934Z,58.06
2023-01-13T18:29:13.602Z,58.97
2023-01-13T18:31:40.150Z,58.57
2023-01-13T18:34:06.798Z,58.84
2023-01-13T18:36:33.471Z,59.01
2023-01-13T18:39:00.128Z,59.05
2023-01-13T18:41:45.219Z,59.16
2023-01-13T18:44:11.837Z,58.75
2023-01-13T18:46:38.394Z,58.70
2023-01-13T18:49:05.009Z,58.52
2023-01-13T18:51:31.581Z,58.86
2023-01-13T18:53:58.513Z,58.72
2023-01-13T18:56:25.205Z,58.70
2023-01-13T18:58:52.512Z,59.19
2023-01-13T19:01:22.619Z,59.04
2023-01-13T19:03:59.611Z,58.77
2023-01-13T19:06:28.852Z,58.23
2023-01-13T19:09:01.891Z,57.64
2023-01-13T19:11:30.565Z,57.34
2023-01-13T19:13:57.108Z,56.67
2023-01-13T19:16:23.742Z,56.79
2023-01-13T19:18:50.396Z,56.54
2023-01-13T19:21:16.983Z,56.14
2023-01-13T19:23:43.600Z,56.02
2023-01-13T19:26:11.147Z,55.93
2023-01-13T19:28:40.135Z,56.26
2023-01-13T19:31:08.263Z,56.21
2023-01-13T19:33:36.227Z,56.14
2023-01-13T19:36:04.572Z,56.26
2023-01-13T19:38:31.577Z,56.48
2023-01-13T19:40:59.354Z,56.46
2023-01-13T19:43:44.623Z,56.34
2023-01-13T19:46:11.952Z,56.38
2023-01-13T19:48:38.651Z,56.57
2023-01-13T19:51:05.676Z,56.65
2023-01-13T19:53:33.388Z,56.56
2023-01-13T19:56:00.117Z,56.60
2023-01-13T19:58:27.021Z,56.80
2023-01-13T20:00:54.159Z,56.87
2023-01-13T20:03:25.358Z,57.01
2023-01-13T20:05:52.698Z,56.98
2023-01-13T20:08:19.790Z,57.05
2023-01-13T20:10:46.837Z,56.90
2023-01-13T20:13:13.610Z,56.88
2023-01-13T20:15:40.610Z,57.00
2023-01-13T20:18:07.536Z,56.88
2023-01-13T20:20:34.220Z,57.25
2023-01-13T20:23:00.796Z,57.12
2023-01-13T20:25:28.854Z,57.07
2023-01-13T20:27:56.242Z,56.90
2023-01-13T20:30:23.120Z,57.06
2023-01-13T20:32:49.694Z,56.99
2023-01-13T20:35:17.174Z,57.47
2023-01-13T20:37:43.804Z,57.23
2023-01-13T20:40:13.011Z,57.30
2023-01-13T20:42:45.583Z,57.17
2023-01-13T20:45:17.725Z,57.31
2023-01-13T20:47:44.821Z,57.04
2023-01-13T20:50:12.171Z,56.96
2023-01-13T20:52:38.912Z,57.10
2023-01-13T20:55:06.684Z,57.05
2023-01-13T20:57:33.312Z,57.46
2023-01-13T21:00:00.178Z,57.45
2023-01-13T21:02:26.801Z,57.57
2023-01-13T21:04:53.412Z,57.78
2023-01-13T21:07:20.044Z,57.96
2023-01-13T21:09:46.655Z,57.87
2023-01-13T21:12:34.353Z,57.87
2023-01-13T21:15:21.730Z,58.31
2023-01-13T21:18:08.025Z,58.61
2023-01-13T21:20:35.593Z,58.63
2023-01-13T21:23:02.960Z,58.81
2023-01-13T21:25:29.955Z,59.04
2023-01-13T21:28:05.673Z,59.25
2023-01-13T21:30:34.950Z,59.49
2023-01-13T21:33:03.897Z,59.59
2023-01-13T21:35:30.869Z,59.80
2023-01-13T21:37:57.512Z,59.98
2023-01-13T21:40:25.267Z,60.08
2023-01-13T21:43:10.544Z,60.06
2023-01-13T21:45:57.000Z,60.33
2023-01-13T21:48:23.709Z,60.19
2023-01-13T21:50:50.287Z,60.14
2023-01-13T21:53:16.919Z,60.10
2023-01-13T21:55:43.592Z,60.05
2023-01-13T21:58:14.127Z,60.34
2023-01-13T22:00:41.592Z,60.13
2023-01-13T22:03:09.003Z,60.61
2023-01-13T22:05:36.007Z,60.85
2023-01-13T22:08:02.772Z,60.81
2023-01-13T22:10:30.531Z,60.42
2023-01-13T22:13:21.100Z,60.73
2023-01-13T22:15:47.700Z,61.07
2023-01-13T22:18:14.324Z,61.15
2023-01-13T22:20:42.100Z,61.15
2023-01-13T22:23:08.688Z,61.57
2023-01-13T22:25:35.311Z,61.47
2023-01-13T22:28:06.041Z,61.86
2023-01-13T22:30:33.225Z,61.46
2023-01-13T22:32:59.925Z,61.62
2023-01-13T22:35:26.568Z,61.28
2023-01-13T22:37:53.114Z,61.73
2023-01-13T22:40:19.768Z,62.36
2023-01-13T22:42:46.418Z,62.48
2023-01-13T22:45:14.106Z,62.66
2023-01-13T22:47:40.807Z,62.65
2023-01-13T22:50:08.025Z,62.54
2023-01-13T22:52:34.786Z,62.89
2023-01-13T22:55:01.418Z,62.91
2023-01-13T22:57:36.145Z,62.81
2023-01-13T23:00:09.948Z,62.46
2023-01-13T23:02:37.845Z,61.98
2023-01-13T23:05:04.619Z,61.72
2023-01-13T23:07:31.136Z,61.77
2023-01-13T23:09:57.703Z,62.08
2023-01-13T23:12:24.280Z,61.66
2023-01-13T23:14:50.923Z,61.44
2023-01-13T23:17:17.451Z,61.58
2023-01-13T23:19:44.042Z,61.55
2023-01-13T23:22:10.638Z,61.80
2023-01-13T23:24:37.248Z,61.75
2023-01-13T23:27:03.855Z,61.18
2023-01-13T23:29:30.580Z,62.10
2023-01-13T23:31:58.159Z,62.03
2023-01-13T23:34:24.830Z,62.63
2023-01-13T23:36:51.418Z,62.26
2023-01-13T23:39:18.138Z,62.46
2023-01-13T23:41:44.686Z,62.42
2023-01-13T23:44:11.297Z,62.25
2023-01-13T23:46:37.915Z,62.15
2023-01-13T23:49:04.973Z,62.04
2023-01-13T23:51:31.955Z,62.16
2023-01-13T23:53:59.466Z,62.26
2023-01-13T23:56:27.566Z,61.99
2023-01-13T23:58:54.318Z,61.89
